Time;durP1;ratioP1;P1;durP2;ratioP2;P2;SDS_P1;SDS_P2;PMS_P1;PMS_P2;Temp;Humidity;BMP_temperature;BMP_pressure;BME280_temperature;BME280_humidity;BME280_pressure;Samples;Min_cycle;Max_cycle;Signal;HPM_P1;HPM_P2
2021/10/18 10:51:45;;;;;;;20.23;12.35;;;15.20;99.90;;;;;;14695325;22;20052;-59
2021/10/18 10:57:32;;;;;;;20.80;13.48;;;15.20;99.90;;;;;;14709309;22;20499;-58
2021/10/18 11:03:40;;;;;;;22.58;11.95;;;15.40;99.90;;;;;;14685828;23;20031;-59
2021/10/18 11:09:38;;;;;;;17.58;11.73;;;15.60;99.90;;;;;;14684630;23;20024;-56
2021/10/18 11:15:25;;;;;;;19.30;10.60;;;15.80;99.90;;;;;;14690939;23;20051;-59
2021/10/18 11:21:15;;;;;;;18.20;10.35;;;16.10;99.90;;;;;;14689444;23;20054;-59
2021/10/18 11:27:02;;;;;;;21.20;9.82;;;16.20;99.90;;;;;;14684414;22;20486;-80
2021/10/18 11:32:56;;;;;;;15.25;10.25;;;16.30;99.90;;;;;;14456678;23;20034;-77
2021/10/18 11:38:45;;;;;;;16.65;10.18;;;16.40;99.90;;;;;;14500314;23;20085;-78
2021/10/18 11:44:45;;;;;;;13.98;9.27;;;16.50;99.90;;;;;;14487538;23;20022;-77
2021/10/18 11:50:36;;;;;;;15.75;9.45;;;16.60;99.90;;;;;;14482377;23;20041;-80
2021/10/18 11:56:24;;;;;;;13.52;9.52;;;16.70;99.90;;;;;;14480318;23;20026;-80
2021/10/18 12:02:20;;;;;;;21.20;9.40;;;16.80;99.90;;;;;;14485007;23;20036;-81
2021/10/18 12:08:08;;;;;;;18.42;8.88;;;16.70;99.90;;;;;;14484355;23;20027;-78
2021/10/18 12:14:05;;;;;;;20.65;9.68;;;16.80;99.90;;;;;;14484148;23;20788;-80
2021/10/18 12:19:52;;;;;;;14.88;8.73;;;17.10;99.90;;;;;;14490137;23;20049;-81
2021/10/18 12:25:39;;;;;;;12.40;7.80;;;17.40;99.90;;;;;;14486521;23;20038;-81
2021/10/18 12:31:37;;;;;;;15.52;8.50;;;17.60;99.90;;;;;;14539158;23;20030;-80
2021/10/18 12:37:27;;;;;;;10.75;7.40;;;17.80;99.90;;;;;;14553065;23;20841;-79
2021/10/18 12:43:27;;;;;;;11.88;7.40;;;17.80;99.90;;;;;;14552489;23;20037;-80
2021/10/18 12:49:15;;;;;;;13.32;7.95;;;18.00;99.90;;;;;;14554572;23;20024;-79
2021/10/18 12:55:11;;;;;;;16.65;7.78;;;17.80;99.90;;;;;;14554633;23;20033;-79
2021/10/18 13:00:58;;;;;;;10.43;6.93;;;17.80;99.90;;;;;;14553986;23;20029;-80
2021/10/18 13:06:46;;;;;;;15.57;7.63;;;17.80;99.90;;;;;;14551372;23;20409;-80
2021/10/18 13:12:34;;;;;;;13.00;7.97;;;17.80;99.90;;;;;;14555218;23;20036;-79
2021/10/18 13:18:23;;;;;;;16.38;8.52;;;17.80;99.90;;;;;;14557598;23;20026;-82
2021/10/18 13:24:12;;;;;;;12.10;7.13;;;17.80;99.90;;;;;;14554914;23;20024;-77
2021/10/18 13:29:59;;;;;;;15.75;7.57;;;17.90;99.90;;;;;;14549800;23;20029;-77
2021/10/18 13:35:46;;;;;;;10.88;7.57;;;17.90;99.90;;;;;;14533302;23;20025;-77
2021/10/18 13:41:34;;;;;;;12.10;8.35;;;17.80;99.90;;;;;;14514093;23;20061;-77
2021/10/18 13:47:21;;;;;;;17.13;8.45;;;17.90;99.90;;;;;;14483531;23;20315;-77
2021/10/18 13:53:08;;;;;;;14.45;8.05;;;17.90;99.90;;;;;;14505769;23;20029;-78
2021/10/18 13:58:57;;;;;;;9.80;7.00;;;17.80;99.90;;;;;;14516789;23;20031;-76
2021/10/18 14:04:44;;;;;;;8.43;6.47;;;17.90;99.90;;;;;;14549888;23;20029;-76
2021/10/18 14:10:31;;;;;;;10.93;6.78;;;18.00;99.90;;;;;;14562082;23;20081;-82
2021/10/18 14:16:20;;;;;;;8.43;6.00;;;17.90;99.90;;;;;;14499218;23;20464;-81
2021/10/18 14:22:07;;;;;;;10.77;6.20;;;18.00;99.90;;;;;;14544703;23;20040;-82
2021/10/18 14:27:54;;;;;;;8.43;5.75;;;17.80;99.90;;;;;;14494376;23;20092;-81
2021/10/18 14:33:42;;;;;;;10.45;5.78;;;17.70;99.90;;;;;;14469184;23;20026;-82
2021/10/18 14:39:29;;;;;;;11.07;6.70;;;17.70;99.90;;;;;;14484292;23;20451;-85
2021/10/18 14:45:17;;;;;;;8.93;5.93;;;17.60;99.90;;;;;;14485705;23;20138;-87
2021/10/18 14:51:06;;;;;;;7.45;5.05;;;17.80;99.90;;;;;;14491255;23;20317;-88
2021/10/18 14:56:53;;;;;;;6.53;4.53;;;17.50;99.90;;;;;;14491148;23;20033;-89
2021/10/18 15:09:04;;;;;;;12.45;5.18;;;17.70;99.90;;;;;;14495883;23;20546;-87
2021/10/18 15:14:53;;;;;;;9.35;5.40;;;17.70;99.90;;;;;;14501269;23;20028;-88
2021/10/18 15:20:43;;;;;;;7.63;5.47;;;17.50;99.90;;;;;;14496718;23;20400;-87
2021/10/18 15:26:31;;;;;;;7.85;5.45;;;17.60;99.90;;;;;;14509563;23;20031;-88
2021/10/18 15:32:20;;;;;;;7.78;5.10;;;17.60;99.90;;;;;;14533351;23;20471;-88
2021/10/18 15:38:07;;;;;;;7.50;5.47;;;17.50;99.90;;;;;;14521339;23;20120;-87
2021/10/18 15:43:55;;;;;;;9.55;5.80;;;17.60;99.90;;;;;;14525822;23;20030;-86
2021/10/18 15:49:42;;;;;;;8.45;5.05;;;17.60;99.90;;;;;;14525513;23;20030;-89
2021/10/18 15:55:29;;;;;;;5.85;4.88;;;17.60;99.90;;;;;;14519865;23;20030;-87
2021/10/18 16:01:53;;;;;;;7.35;5.00;;;17.60;99.90;;;;;;14498754;23;20033;-88
2021/10/18 16:15:22;;;;;;;11.32;5.97;;;17.50;99.90;;;;;;14131827;23;20022;-91
2021/10/18 16:33:46;;;;;;;9.32;5.65;;;17.30;99.90;;;;;;13826330;24;20542;-90
2021/10/18 16:39:34;;;;;;;10.55;6.10;;;17.30;99.90;;;;;;13852390;24;20038;-89
